Time;durP1;ratioP1;P1;durP2;ratioP2;P2;SDS_P1;SDS_P2;PMS_P1;PMS_P2;Temp;Humidity;BMP_temperature;BMP_pressure;BME280_temperature;BME280_humidity;BME280_pressure;Samples;Min_cycle;Max_cycle;Signal;HPM_P1;HPM_P2
2022/05/18 00:03:16;;;;;;;3.00;1.50;;;18.30;99.90;;;;;;7355013;32;20523;-61
2022/05/18 00:07:18;;;;;;;6.37;2.33;;;18.30;99.90;;;;;;7354416;32;20175;-63
2022/05/18 00:11:20;;;;;;;4.62;1.85;;;18.30;99.90;;;;;;7358155;32;20104;-63
2022/05/18 00:15:24;;;;;;;5.22;1.98;;;18.30;99.90;;;;;;7355000;32;20467;-63
2022/05/18 00:19:26;;;;;;;6.65;2.22;;;18.30;99.90;;;;;;7356079;32;20111;-63
2022/05/18 00:23:28;;;;;;;3.87;1.85;;;18.30;99.90;;;;;;7359919;32;20516;-63
2022/05/18 00:27:30;;;;;;;4.97;2.08;;;18.30;99.90;;;;;;7340228;32;20111;-62
2022/05/18 00:31:31;;;;;;;3.28;1.73;;;18.30;99.90;;;;;;7356289;32;20107;-63
2022/05/18 00:35:35;;;;;;;6.07;1.90;;;18.20;99.90;;;;;;7362521;32;20555;-63
2022/05/18 00:39:37;;;;;;;7.37;1.70;;;18.10;99.90;;;;;;7360236;32;20156;-63
2022/05/18 00:43:42;;;;;;;5.32;1.95;;;18.10;99.90;;;;;;7350019;32;20549;-63
2022/05/18 00:47:44;;;;;;;4.95;1.92;;;18.00;99.90;;;;;;7360357;32;20258;-63
2022/05/18 00:51:53;;;;;;;7.60;1.85;;;17.90;99.90;;;;;;7365092;32;20697;-63
2022/05/18 00:56:00;;;;;;;4.97;1.80;;;17.90;99.90;;;;;;7366624;32;20137;-63
2022/05/18 01:00:10;;;;;;;7.07;2.20;;;17.90;99.90;;;;;;7364167;32;20158;-63
2022/05/18 01:04:14;;;;;;;5.00;2.00;;;17.80;99.90;;;;;;7366296;32;20141;-62
2022/05/18 01:08:26;;;;;;;4.43;1.92;;;17.80;99.90;;;;;;7369768;32;20103;-63
2022/05/18 01:12:28;;;;;;;5.18;2.12;;;17.80;99.90;;;;;;7366723;32;20852;-62
2022/05/18 01:16:30;;;;;;;7.78;2.10;;;17.70;99.90;;;;;;7348308;32;20475;-63
2022/05/18 01:20:36;;;;;;;5.50;2.00;;;17.70;99.90;;;;;;7344802;32;20142;-62
2022/05/18 01:25:03;;;;;;;3.45;1.98;;;17.60;99.90;;;;;;7350065;32;20492;-62
2022/05/18 01:29:05;;;;;;;5.87;2.05;;;17.60;99.90;;;;;;7321680;32;20202;-63
2022/05/18 01:33:08;;;;;;;4.15;2.10;;;17.60;99.90;;;;;;7360557;32;20210;-63
2022/05/18 01:37:12;;;;;;;6.35;1.90;;;17.50;99.90;;;;;;7358046;32;20200;-63
2022/05/18 01:41:21;;;;;;;3.40;1.98;;;17.50;99.90;;;;;;7364192;32;20115;-63
2022/05/18 01:45:23;;;;;;;4.30;2.33;;;17.40;99.90;;;;;;7362770;32;20225;-63
2022/05/18 01:49:26;;;;;;;4.47;2.00;;;17.40;99.90;;;;;;7350249;32;20216;-62
2022/05/18 01:53:29;;;;;;;5.18;2.40;;;17.40;99.90;;;;;;7357225;32;20115;-62
2022/05/18 01:57:33;;;;;;;6.95;2.05;;;17.40;99.90;;;;;;7358920;32;20250;-62
2022/05/18 02:01:35;;;;;;;4.18;2.50;;;17.40;99.90;;;;;;7357694;32;20137;-63
2022/05/18 02:05:38;;;;;;;3.58;2.33;;;17.40;99.90;;;;;;7358914;32;20447;-63
2022/05/18 02:09:41;;;;;;;4.85;2.40;;;17.40;99.90;;;;;;7356415;32;21058;-63
2022/05/18 02:13:43;;;;;;;6.40;3.05;;;17.40;99.90;;;;;;7334454;32;20115;-63
2022/05/18 02:17:44;;;;;;;4.85;2.30;;;17.40;99.90;;;;;;7363352;32;20115;-63
2022/05/18 02:21:46;;;;;;;8.35;2.50;;;17.40;99.90;;;;;;7358800;32;20476;-62
2022/05/18 02:25:48;;;;;;;5.00;2.30;;;17.40;99.90;;;;;;7362751;32;20107;-62
2022/05/18 02:29:50;;;;;;;2.92;2.03;;;17.40;99.90;;;;;;7359980;32;20199;-62
2022/05/18 02:33:52;;;;;;;4.90;2.28;;;17.30;99.90;;;;;;7359705;32;20332;-62
2022/05/18 02:37:55;;;;;;;6.25;2.40;;;17.20;99.90;;;;;;7354482;32;20134;-63
2022/05/18 02:41:56;;;;;;;5.47;2.22;;;17.20;99.90;;;;;;7341266;32;20239;-62
2022/05/18 02:46:06;;;;;;;7.60;2.45;;;17.20;99.90;;;;;;7363467;32;20106;-62
2022/05/18 02:50:09;;;;;;;5.35;2.30;;;17.20;99.90;;;;;;7346768;32;20114;-63
2022/05/18 02:58:42;;;;;;;3.90;2.20;;;17.10;99.90;;;;;;7359989;32;20448;-62
2022/05/18 03:02:44;;;;;;;4.15;2.30;;;17.10;99.90;;;;;;7346084;32;22096;-62
2022/05/18 03:06:45;;;;;;;6.32;2.35;;;17.10;99.90;;;;;;7358395;32;20178;-62
2022/05/18 03:10:47;;;;;;;6.05;2.60;;;17.10;99.90;;;;;;7340213;32;20205;-62
2022/05/18 03:14:49;;;;;;;4.72;2.45;;;17.10;99.90;;;;;;7361514;32;20239;-63
2022/05/18 03:18:50;;;;;;;7.18;2.62;;;17.10;99.90;;;;;;7358092;32;20647;-62
2022/05/18 03:27:12;;;;;;;7.12;2.33;;;17.10;99.90;;;;;;7346574;32;20103;-63
2022/05/18 03:31:15;;;;;;;5.05;2.53;;;17.00;99.90;;;;;;7347097;32;20125;-62
2022/05/18 03:35:19;;;;;;;5.70;2.30;;;17.00;99.90;;;;;;7347144;32;20110;-62
2022/05/18 03:39:21;;;;;;;4.22;2.50;;;17.00;99.90;;;;;;7354677;32;20594;-62
2022/05/18 03:43:24;;;;;;;6.90;2.20;;;17.00;99.90;;;;;;7362481;32;20112;-62
2022/05/18 03:47:26;;;;;;;6.95;2.65;;;17.00;99.90;;;;;;7356714;32;20230;-62
2022/05/18 03:51:27;;;;;;;5.97;2.47;;;17.10;99.90;;;;;;7358782;32;20555;-62
2022/05/18 03:55:30;;;;;;;5.05;2.25;;;17.10;99.90;;;;;;7354970;32;20143;-62
2022/05/18 03:59:31;;;;;;;3.75;2.70;;;17.10;99.90;;;;;;7343409;32;20114;-62
2022/05/18 04:03:34;;;;;;;5.20;2.20;;;17.10;99.90;;;;;;7347962;32;20553;-62
2022/05/18 04:07:36;;;;;;;4.53;2.10;;;17.10;99.90;;;;;;7339313;32;20456;-62
2022/05/18 04:11:38;;;;;;;4.05;2.53;;;17.10;99.90;;;;;;7350065;32;20130;-62
2022/05/18 04:15:40;;;;;;;6.47;2.42;;;17.20;99.90;;;;;;7363625;32;20133;-62
2022/05/18 04:19:42;;;;;;;6.20;2.53;;;17.20;99.90;;;;;;7360155;32;20152;-62
2022/05/18 04:23:44;;;;;;;4.05;2.47;;;17.20;99.90;;;;;;7342795;32;20304;-62
2022/05/18 04:27:47;;;;;;;4.85;2.50;;;17.40;99.90;;;;;;7362818;32;20129;-62
2022/05/18 04:31:49;;;;;;;4.12;2.50;;;17.50;99.90;;;;;;7341168;32;20150;-62
2022/05/18 04:35:51;;;;;;;4.05;2.15;;;17.70;99.90;;;;;;7358933;32;20529;-62
2022/05/18 04:39:52;;;;;;;4.40;2.10;;;18.10;99.90;;;;;;7347633;32;20119;-63
2022/05/18 04:43:54;;;;;;;3.42;2.28;;;18.50;99.90;;;;;;7355837;32;20190;-62
2022/05/18 04:47:56;;;;;;;3.35;1.87;;;18.90;99.90;;;;;;7352821;32;20107;-66
2022/05/18 04:51:57;;;;;;;3.28;2.10;;;19.30;99.90;;;;;;7351218;32;20444;-67
2022/05/18 04:56:01;;;;;;;5.30;1.90;;;19.60;99.90;;;;;;7347155;32;20221;-66
2022/05/18 05:00:05;;;;;;;7.25;2.15;;;19.90;99.90;;;;;;7353534;32;20190;-67
2022/05/18 05:04:09;;;;;;;3.95;2.10;;;20.30;99.90;;;;;;7343580;32;20218;-68
2022/05/18 05:08:11;;;;;;;3.22;2.05;;;20.50;99.90;;;;;;7340444;32;20238;-69
2022/05/18 05:12:12;;;;;;;4.70;2.08;;;20.70;99.90;;;;;;7363467;32;20106;-69
2022/05/18 05:16:14;;;;;;;4.65;2.20;;;21.10;99.90;;;;;;7361747;32;20126;-69
2022/05/18 05:20:21;;;;;;;5.10;2.05;;;21.10;99.90;;;;;;7346070;32;20210;-68
2022/05/18 05:24:23;;;;;;;5.12;2.47;;;20.80;99.90;;;;;;7367421;32;20146;-68
2022/05/18 05:28:25;;;;;;;3.20;2.33;;;20.40;99.90;;;;;;7367328;32;20233;-68
2022/05/18 05:32:27;;;;;;;6.25;2.00;;;19.90;99.90;;;;;;7366370;32;20110;-68
2022/05/18 05:36:30;;;;;;;6.62;2.22;;;19.60;99.90;;;;;;7353429;32;20374;-67
2022/05/18 05:40:32;;;;;;;9.68;3.25;;;19.50;99.90;;;;;;7359259;32;20462;-69
2022/05/18 05:44:34;;;;;;;7.37;2.75;;;19.30;99.90;;;;;;7368966;32;20481;-68
2022/05/18 05:48:36;;;;;;;4.47;2.42;;;19.30;99.90;;;;;;7363706;32;20173;-67
2022/05/18 05:52:38;;;;;;;4.78;2.15;;;19.30;99.90;;;;;;7361179;32;20111;-65
2022/05/18 05:56:40;;;;;;;3.85;2.30;;;19.30;99.90;;;;;;7356674;32;20107;-66
2022/05/18 06:00:41;;;;;;;4.72;2.00;;;19.20;99.90;;;;;;7352066;32;20263;-65
2022/05/18 06:04:44;;;;;;;6.72;2.53;;;19.30;99.90;;;;;;7361792;32;20110;-64
2022/05/18 06:08:45;;;;;;;5.72;2.40;;;19.30;99.90;;;;;;7361536;32;20127;-65
2022/05/18 06:12:47;;;;;;;3.87;2.30;;;19.40;99.90;;;;;;7353716;32;20304;-64
2022/05/18 06:16:49;;;;;;;7.15;2.22;;;19.70;99.90;;;;;;7356478;32;20119;-66
2022/05/18 06:20:51;;;;;;;4.62;1.85;;;20.50;99.90;;;;;;7343343;32;20340;-65
2022/05/18 06:24:53;;;;;;;4.37;2.15;;;21.40;99.90;;;;;;7361725;32;20167;-65
2022/05/18 06:28:55;;;;;;;5.05;1.80;;;22.60;99.90;;;;;;7343824;32;20115;-66
2022/05/18 06:32:56;;;;;;;5.62;1.85;;;23.50;99.90;;;;;;7354977;32;20509;-65
2022/05/18 06:36:58;;;;;;;6.85;2.20;;;24.30;99.90;;;;;;7358921;32;20143;-65
2022/05/18 06:45:20;;;;;;;5.90;1.77;;;25.50;99.90;;;;;;7345914;32;20205;-66
2022/05/18 06:49:22;;;;;;;3.10;1.40;;;26.00;99.90;;;;;;7357775;32;20233;-66
2022/05/18 06:53:24;;;;;;;4.20;1.85;;;26.30;99.90;;;;;;7333236;32;20111;-66
2022/05/18 06:57:26;;;;;;;3.47;1.70;;;26.40;99.90;;;;;;7358318;32;20133;-66
2022/05/18 07:01:28;;;;;;;4.50;1.83;;;25.90;99.90;;;;;;7342334;32;20137;-66
2022/05/18 07:05:31;;;;;;;4.18;1.45;;;25.70;99.90;;;;;;7348082;32;20537;-66
2022/05/18 07:09:33;;;;;;;4.90;1.83;;;25.60;99.90;;;;;;7359391;32;20229;-65
2022/05/18 07:13:35;;;;;;;4.25;1.70;;;25.20;99.90;;;;;;7354223;32;20099;-66
2022/05/18 07:17:37;;;;;;;5.43;1.70;;;24.60;99.90;;;;;;7354748;32;20229;-68
2022/05/18 07:21:59;;;;;;;5.30;1.62;;;24.20;99.90;;;;;;7344609;32;20095;-68
2022/05/18 07:26:01;;;;;;;5.10;1.90;;;24.40;99.90;;;;;;7346763;32;20118;-69
2022/05/18 07:30:04;;;;;;;5.28;1.92;;;24.50;99.90;;;;;;7346159;32;20796;-68
2022/05/18 07:34:06;;;;;;;6.12;1.87;;;24.60;99.90;;;;;;7337788;32;20388;-67
2022/05/18 07:38:08;;;;;;;4.18;1.48;;;24.60;99.90;;;;;;7356042;32;20152;-67
2022/05/18 07:42:30;;;;;;;5.25;1.80;;;24.20;99.90;;;;;;7359625;32;20133;-68
2022/05/18 07:46:33;;;;;;;3.28;1.90;;;23.90;99.90;;;;;;7353514;32;20816;-67
2022/05/18 07:50:35;;;;;;;5.90;1.92;;;23.50;99.90;;;;;;7356217;32;20710;-66
2022/05/18 07:54:37;;;;;;;4.68;1.62;;;23.20;99.90;;;;;;7359540;32;20237;-66
2022/05/18 07:58:40;;;;;;;4.50;1.85;;;23.20;99.90;;;;;;7354386;32;20155;-67
2022/05/18 08:02:44;;;;;;;5.65;1.77;;;23.20;99.90;;;;;;7360046;32;20289;-66
2022/05/18 08:06:47;;;;;;;9.73;1.70;;;23.50;99.90;;;;;;7363732;32;20115;-66
2022/05/18 08:15:18;;;;;;;5.05;1.95;;;23.90;99.90;;;;;;7346995;32;20293;-66
2022/05/18 08:19:21;;;;;;;2.90;1.60;;;24.10;99.90;;;;;;7357751;32;20460;-67
2022/05/18 08:23:25;;;;;;;4.85;1.45;;;24.60;99.90;;;;;;7356652;32;20300;-67
2022/05/18 08:27:28;;;;;;;2.92;1.50;;;25.50;99.90;;;;;;7359381;32;20119;-67
2022/05/18 08:31:32;;;;;;;2.17;1.40;;;26.30;99.90;;;;;;7332670;32;20119;-67
2022/05/18 08:35:35;;;;;;;7.40;2.00;;;27.00;99.90;;;;;;7352226;32;20580;-67
2022/05/18 08:39:40;;;;;;;5.40;1.67;;;27.70;98.90;;;;;;7355855;32;20901;-67
2022/05/18 08:43:50;;;;;;;5.62;1.58;;;28.40;96.70;;;;;;7361132;32;20200;-67
2022/05/18 08:48:22;;;;;;;3.03;1.58;;;29.10;92.70;;;;;;7362310;32;20290;-67
2022/05/18 08:52:34;;;;;;;3.95;2.00;;;29.60;90.30;;;;;;7325378;32;20511;-67
2022/05/18 08:56:41;;;;;;;5.70;1.70;;;29.70;85.20;;;;;;7357661;32;20530;-68
2022/05/18 09:00:49;;;;;;;3.30;1.45;;;29.80;82.80;;;;;;7347217;32;20232;-68
2022/05/18 09:05:16;;;;;;;5.18;1.87;;;30.30;88.50;;;;;;7365133;32;20283;-66
2022/05/18 09:10:14;;;;;;;6.25;1.23;;;30.90;84.70;;;;;;7364262;32;20133;-66
2022/05/18 09:14:20;;;;;;;3.60;1.60;;;30.80;73.60;;;;;;7329742;32;20130;-67
2022/05/18 09:18:39;;;;;;;3.35;1.58;;;30.80;80.00;;;;;;7359869;32;20170;-67
2022/05/18 09:23:15;;;;;;;6.18;1.58;;;31.20;78.50;;;;;;7364020;32;20166;-67
2022/05/18 09:27:35;;;;;;;4.22;1.40;;;31.40;72.30;;;;;;7323703;32;20272;-67
2022/05/18 09:31:57;;;;;;;4.07;1.73;;;31.70;74.90;;;;;;7355189;32;20496;-66
2022/05/18 09:36:22;;;;;;;2.70;1.90;;;32.00;75.30;;;;;;7344712;32;20151;-67
2022/05/18 09:40:32;;;;;;;3.45;1.62;;;32.10;74.70;;;;;;7355914;32;20174;-67
2022/05/18 09:44:56;;;;;;;3.33;1.50;;;31.80;72.70;;;;;;7356479;32;20212;-66
2022/05/18 09:49:25;;;;;;;6.45;1.60;;;31.80;68.10;;;;;;7366359;32;20134;-66
2022/05/18 09:53:29;;;;;;;8.32;2.37;;;31.50;73.70;;;;;;7361745;32;20360;-66
2022/05/18 09:57:43;;;;;;;3.78;1.60;;;31.90;74.60;;;;;;7343002;32;20158;-65
2022/05/18 10:10:36;;;;;;;4.25;1.55;;;31.90;66.80;;;;;;7355843;32;20230;-66
2022/05/18 10:14:40;;;;;;;5.20;1.73;;;32.10;71.80;;;;;;7357126;32;20204;-66
2022/05/18 10:18:50;;;;;;;3.55;1.58;;;32.30;66.60;;;;;;7366106;32;20163;-67
2022/05/18 10:22:54;;;;;;;4.78;1.83;;;32.30;64.10;;;;;;7371223;32;20260;-67
2022/05/18 10:27:16;;;;;;;4.53;1.70;;;32.10;66.00;;;;;;7374486;32;20128;-67
2022/05/18 10:31:37;;;;;;;6.18;1.80;;;32.10;65.20;;;;;;7355514;32;20237;-67
2022/05/18 10:35:47;;;;;;;2.97;1.30;;;31.80;60.40;;;;;;7353817;32;20114;-67
2022/05/18 10:39:55;;;;;;;4.93;1.20;;;32.00;63.70;;;;;;7360694;32;20582;-67
2022/05/18 10:44:05;;;;;;;4.78;1.37;;;31.80;61.80;;;;;;7367863;32;20179;-68
2022/05/18 10:48:18;;;;;;;4.57;1.65;;;31.60;61.30;;;;;;7361617;32;20240;-68
2022/05/18 10:52:33;;;;;;;6.12;1.70;;;31.50;65.40;;;;;;7363141;32;20325;-68
2022/05/18 10:56:34;;;;;;;3.05;1.33;;;31.40;66.70;;;;;;7361505;32;20350;-68
2022/05/18 11:00:48;;;;;;;7.10;1.52;;;31.40;62.10;;;;;;7350932;32;20111;-67
2022/05/18 11:05:14;;;;;;;3.22;1.40;;;31.30;63.40;;;;;;7360718;32;20548;-68
2022/05/18 11:09:30;;;;;;;2.65;1.12;;;31.10;57.70;;;;;;7357015;32;20242;-67
2022/05/18 11:13:58;;;;;;;3.12;1.23;;;31.10;58.50;;;;;;7359965;32;20245;-69
2022/05/18 11:18:33;;;;;;;2.50;1.33;;;30.90;61.60;;;;;;7355392;32;20242;-69
2022/05/18 11:22:51;;;;;;;4.28;1.60;;;30.60;60.40;;;;;;7362997;32;20761;-68
2022/05/18 11:27:23;;;;;;;3.97;1.45;;;30.80;57.50;;;;;;7361251;32;20225;-69
2022/05/18 11:31:41;;;;;;;3.58;1.40;;;30.70;60.10;;;;;;7365702;32;20212;-68
2022/05/18 11:36:20;;;;;;;2.62;1.55;;;30.50;63.00;;;;;;7352585;32;22166;-67
2022/05/18 11:40:39;;;;;;;3.30;1.62;;;30.50;58.40;;;;;;7354160;32;20108;-70
2022/05/18 11:45:00;;;;;;;3.78;1.17;;;30.70;61.20;;;;;;7363216;32;20492;-70
2022/05/18 11:49:15;;;;;;;4.30;1.10;;;30.50;58.20;;;;;;7360485;32;20190;-70
2022/05/18 11:53:42;;;;;;;5.45;1.55;;;30.50;57.20;;;;;;7352779;32;20190;-70
2022/05/18 11:58:01;;;;;;;2.17;1.40;;;30.30;56.60;;;;;;7357530;32;20111;-70
2022/05/18 12:02:15;;;;;;;4.10;1.27;;;30.30;61.90;;;;;;7356842;32;20638;-70
2022/05/18 12:07:01;;;;;;;3.80;1.30;;;30.50;58.50;;;;;;7361877;32;20417;-69
2022/05/18 12:11:17;;;;;;;3.42;1.30;;;30.70;57.80;;;;;;7284109;32;20386;-68
2022/05/18 12:15:28;;;;;;;2.75;1.20;;;30.60;53.90;;;;;;7359520;32;20107;-69
2022/05/18 12:19:44;;;;;;;2.75;1.30;;;30.50;57.90;;;;;;7356509;32;20129;-68
2022/05/18 12:23:53;;;;;;;2.87;1.13;;;30.50;54.50;;;;;;7358891;32;20136;-69
2022/05/18 12:28:04;;;;;;;3.05;1.20;;;30.40;54.20;;;;;;7353300;32;20203;-68
2022/05/18 12:32:08;;;;;;;4.75;1.48;;;30.50;54.10;;;;;;7360469;32;20136;-70
2022/05/18 12:36:24;;;;;;;3.28;1.02;;;30.50;55.00;;;;;;7353392;32;20219;-69
2022/05/18 12:40:33;;;;;;;4.93;1.40;;;30.60;57.00;;;;;;7342120;32;20196;-69
2022/05/18 12:44:50;;;;;;;3.53;1.10;;;30.50;55.70;;;;;;7342897;32;20114;-69
2022/05/18 12:49:27;;;;;;;1.77;1.10;;;30.50;54.10;;;;;;7358460;32;20215;-66
2022/05/18 12:53:46;;;;;;;3.53;1.57;;;30.50;57.80;;;;;;7267992;32;20127;-67
2022/05/18 12:57:54;;;;;;;3.12;1.20;;;30.40;53.20;;;;;;7356840;32;20107;-67
2022/05/18 13:02:04;;;;;;;5.40;1.58;;;30.30;57.30;;;;;;7355431;32;20217;-67
2022/05/18 13:06:39;;;;;;;4.45;1.33;;;30.30;57.30;;;;;;7353081;32;20220;-67
2022/05/18 13:11:10;;;;;;;5.50;1.35;;;30.30;58.30;;;;;;7340326;32;20137;-69
2022/05/18 13:15:20;;;;;;;7.37;1.60;;;30.50;55.40;;;;;;7354815;32;20712;-69
2022/05/18 13:19:32;;;;;;;3.15;1.40;;;30.70;55.60;;;;;;7351683;32;20111;-68
2022/05/18 13:23:52;;;;;;;5.20;1.40;;;30.70;55.20;;;;;;7339702;32;20249;-68
2022/05/18 13:27:56;;;;;;;5.65;1.37;;;30.60;52.60;;;;;;7355018;32;20450;-69
2022/05/18 13:32:05;;;;;;;5.93;1.45;;;30.30;56.90;;;;;;7346213;32;20126;-68
2022/05/18 13:36:07;;;;;;;5.45;1.42;;;30.30;55.70;;;;;;7363410;32;20133;-69
2022/05/18 13:40:09;;;;;;;2.00;1.48;;;30.30;55.00;;;;;;7357101;32;20132;-69
2022/05/18 13:44:11;;;;;;;3.62;1.15;;;30.30;54.60;;;;;;7366986;32;20151;-68
2022/05/18 13:48:14;;;;;;;3.17;1.20;;;30.30;56.20;;;;;;7360529;32;20624;-69
2022/05/18 13:52:42;;;;;;;1.87;1.20;;;30.40;57.50;;;;;;7366338;32;20395;-69
2022/05/18 13:56:50;;;;;;;3.65;1.27;;;30.40;58.50;;;;;;7357534;32;20202;-68
2022/05/18 14:01:06;;;;;;;7.40;1.50;;;30.10;54.30;;;;;;7359464;32;20496;-68
2022/05/18 14:05:12;;;;;;;4.75;1.30;;;30.10;56.70;;;;;;7362283;32;20522;-68
2022/05/18 14:09:17;;;;;;;7.85;1.80;;;30.10;55.40;;;;;;7361523;32;20212;-69
2022/05/18 14:13:19;;;;;;;4.32;1.27;;;29.90;55.80;;;;;;7359734;32;20530;-67
2022/05/18 14:17:26;;;;;;;1.92;1.20;;;29.50;58.00;;;;;;7346731;32;20505;-68
2022/05/18 14:21:28;;;;;;;5.05;1.30;;;29.10;58.00;;;;;;7356213;32;20490;-68
2022/05/18 14:25:35;;;;;;;4.07;2.05;;;29.30;58.10;;;;;;7367491;32;20111;-69
2022/05/18 14:29:48;;;;;;;2.40;1.20;;;29.40;60.70;;;;;;7347403;32;20104;-68
2022/05/18 14:33:51;;;;;;;2.62;1.30;;;29.50;58.50;;;;;;7365239;32;20504;-69
2022/05/18 14:37:58;;;;;;;4.60;1.20;;;29.50;57.40;;;;;;7359759;32;20136;-70
2022/05/18 14:42:01;;;;;;;6.62;1.70;;;29.60;58.30;;;;;;7346076;32;20114;-69
2022/05/18 14:46:26;;;;;;;3.97;1.50;;;29.50;59.60;;;;;;7342312;32;20103;-67
2022/05/18 14:50:36;;;;;;;2.33;1.50;;;29.60;57.40;;;;;;7358214;32;20133;-69
2022/05/18 14:54:46;;;;;;;3.87;1.58;;;29.40;58.60;;;;;;7359513;32;20395;-68
2022/05/18 14:58:56;;;;;;;3.22;1.80;;;29.40;58.40;;;;;;7339033;32;20174;-69
2022/05/18 15:02:58;;;;;;;8.82;1.90;;;29.50;60.30;;;;;;7365459;32;20137;-69
2022/05/18 15:07:05;;;;;;;3.22;1.55;;;29.00;56.70;;;;;;7351013;32;20103;-68
2022/05/18 15:11:10;;;;;;;;;;;28.70;59.70;;;;;;7346376;32;20190;-67
2022/05/18 15:15:18;;;;;;;2.70;1.80;;;28.50;61.30;;;;;;7345693;32;20002;-68
2022/05/18 15:19:32;;;;;;;7.43;2.00;;;28.40;66.50;;;;;;7356116;32;20149;-68
2022/05/18 15:23:39;;;;;;;3.42;1.73;;;28.20;68.90;;;;;;7345029;32;20559;-69
2022/05/18 15:27:43;;;;;;;;;;;28.30;65.00;;;;;;7364864;32;20114;-66
2022/05/18 15:32:12;;;;;;;5.45;1.70;;;28.10;67.30;;;;;;7347457;32;20026;-67
2022/05/18 15:36:16;;;;;;;4.82;1.80;;;28.00;65.90;;;;;;7344784;32;20107;-68
2022/05/18 15:40:18;;;;;;;2.62;1.60;;;28.00;67.70;;;;;;7362952;32;20136;-68
2022/05/18 15:44:20;;;;;;;3.47;1.70;;;27.80;68.20;;;;;;7367160;32;20115;-67
2022/05/18 15:48:22;;;;;;;4.03;1.50;;;27.70;71.60;;;;;;7345607;32;20409;-66
2022/05/18 15:52:24;;;;;;;3.65;1.80;;;27.60;72.50;;;;;;7331316;32;20739;-68
2022/05/18 15:56:28;;;;;;;6.50;2.50;;;27.40;72.60;;;;;;7347446;32;20170;-68
2022/05/18 16:00:30;;;;;;;4.22;2.35;;;27.50;71.00;;;;;;7359622;32;20129;-66
2022/05/18 16:04:31;;;;;;;2.67;1.70;;;27.50;73.80;;;;;;7345377;32;20115;-67
2022/05/18 16:08:35;;;;;;;5.87;1.98;;;27.40;71.70;;;;;;7345234;32;20119;-66
2022/05/18 16:12:39;;;;;;;5.37;1.77;;;27.40;70.00;;;;;;7347652;32;20202;-68
2022/05/18 16:16:41;;;;;;;5.28;2.00;;;27.30;72.60;;;;;;7361533;32;20111;-68
2022/05/18 16:20:43;;;;;;;6.12;1.98;;;27.20;72.90;;;;;;7361553;32;20115;-67
2022/05/18 16:24:49;;;;;;;6.60;1.87;;;27.20;73.40;;;;;;7363107;32;20561;-68
2022/05/18 16:28:50;;;;;;;4.90;1.90;;;27.10;72.80;;;;;;7344481;32;20141;-68
2022/05/18 16:32:53;;;;;;;8.02;2.20;;;27.10;76.30;;;;;;7347690;32;20136;-67
2022/05/18 16:36:54;;;;;;;6.70;2.60;;;27.10;75.50;;;;;;7357547;32;20197;-67
2022/05/18 16:40:58;;;;;;;4.30;1.95;;;26.90;91.50;;;;;;7344686;32;20455;-67
2022/05/18 16:45:01;;;;;;;4.32;2.22;;;26.90;83.60;;;;;;7357754;32;20145;-66
2022/05/18 16:49:03;;;;;;;3.72;1.73;;;26.80;83.60;;;;;;7358730;32;20693;-68
2022/05/18 16:53:05;;;;;;;5.82;1.50;;;26.80;84.40;;;;;;7350779;32;20226;-66
2022/05/18 16:57:10;;;;;;;7.57;3.53;;;26.80;81.40;;;;;;7348884;32;20226;-67
2022/05/18 17:01:19;;;;;;;6.80;2.33;;;26.80;85.00;;;;;;7356370;32;20115;-67
2022/05/18 17:09:42;;;;;;;9.07;2.03;;;26.50;99.90;;;;;;7354015;32;20221;-66
2022/05/18 17:13:48;;;;;;;5.37;2.20;;;26.40;99.90;;;;;;7364222;32;20130;-68
2022/05/18 17:17:50;;;;;;;5.70;2.17;;;26.20;99.90;;;;;;7360122;32;20147;-68
2022/05/18 17:21:52;;;;;;;7.78;1.92;;;26.10;99.90;;;;;;7370253;32;20130;-68
2022/05/18 17:25:53;;;;;;;3.53;2.22;;;26.00;99.90;;;;;;7339993;32;20133;-66
2022/05/18 17:30:06;;;;;;;5.87;2.12;;;25.90;99.90;;;;;;7361540;32;20308;-67
2022/05/18 17:34:08;;;;;;;7.87;2.60;;;25.70;99.90;;;;;;7371601;32;20216;-67
2022/05/18 17:38:10;;;;;;;7.47;2.53;;;25.70;99.90;;;;;;7360876;32;20157;-68
2022/05/18 17:42:11;;;;;;;16.62;10.82;;;25.50;99.90;;;;;;7370658;32;20590;-67
2022/05/18 17:46:15;;;;;;;7.75;3.22;;;25.30;99.90;;;;;;7363151;32;20527;-67
2022/05/18 17:50:38;;;;;;;6.28;2.58;;;25.20;99.90;;;;;;7367196;32;20175;-68
2022/05/18 17:54:40;;;;;;;10.68;2.70;;;25.00;99.90;;;;;;7347140;32;20152;-68
2022/05/18 17:58:43;;;;;;;4.00;2.30;;;24.80;99.90;;;;;;7353149;32;20114;-68
2022/05/18 18:02:46;;;;;;;7.80;2.90;;;24.70;99.90;;;;;;7358780;32;20257;-69
2022/05/18 18:06:48;;;;;;;3.95;2.22;;;24.50;99.90;;;;;;7361596;32;20132;-66
2022/05/18 18:10:51;;;;;;;4.43;2.70;;;24.50;99.90;;;;;;7351543;32;20126;-68
2022/05/18 18:14:53;;;;;;;4.20;2.30;;;24.40;99.90;;;;;;7348319;32;20711;-67
2022/05/18 18:18:57;;;;;;;6.12;2.20;;;24.40;99.90;;;;;;7344773;32;20202;-67
2022/05/18 18:23:00;;;;;;;5.35;2.53;;;24.40;99.90;;;;;;7364205;32;20182;-68
2022/05/18 18:27:03;;;;;;;4.37;2.03;;;24.20;99.90;;;;;;7367747;32;20538;-67
2022/05/18 18:31:06;;;;;;;8.80;2.37;;;24.00;99.90;;;;;;7361786;32;20118;-68
2022/05/18 18:35:10;;;;;;;5.72;4.07;;;23.90;99.90;;;;;;7365478;32;20164;-68
2022/05/18 18:39:23;;;;;;;5.07;2.58;;;23.80;99.90;;;;;;7360305;32;20103;-69
2022/05/18 18:43:28;;;;;;;4.57;2.40;;;23.70;99.90;;;;;;7364967;32;20210;-69
2022/05/18 18:47:30;;;;;;;4.12;2.30;;;23.60;99.90;;;;;;7350228;32;20504;-69
2022/05/18 18:55:58;;;;;;;10.20;2.53;;;23.30;99.90;;;;;;7365664;32;20115;-69
2022/05/18 19:00:02;;;;;;;4.85;2.97;;;23.10;99.90;;;;;;7363245;32;20125;-68
2022/05/18 19:04:12;;;;;;;5.95;3.40;;;23.00;99.90;;;;;;7362995;32;20144;-69
2022/05/18 19:08:14;;;;;;;11.32;3.90;;;22.80;99.90;;;;;;7350979;32;20823;-69
2022/05/18 19:12:25;;;;;;;9.00;3.50;;;22.60;99.90;;;;;;7353405;32;20141;-69
2022/05/18 19:16:27;;;;;;;7.65;3.50;;;22.60;99.90;;;;;;7361399;32;20135;-69
2022/05/18 19:20:33;;;;;;;5.43;3.50;;;22.40;99.90;;;;;;7354219;32;20110;-68
2022/05/18 19:24:35;;;;;;;6.25;3.47;;;22.20;99.90;;;;;;7357399;32;20267;-68
2022/05/18 19:28:46;;;;;;;7.95;4.00;;;22.10;99.90;;;;;;7340504;32;20107;-69
2022/05/18 19:32:49;;;;;;;8.43;3.47;;;21.90;99.90;;;;;;7354361;32;20182;-68
2022/05/18 19:36:51;;;;;;;8.82;3.78;;;21.70;99.90;;;;;;7359610;32;20110;-67
2022/05/18 19:40:52;;;;;;;5.45;3.67;;;21.60;99.90;;;;;;7351117;32;20643;-66
2022/05/18 19:44:54;;;;;;;8.63;4.47;;;21.50;99.90;;;;;;7341188;32;20129;-67
2022/05/18 19:48:57;;;;;;;11.48;7.07;;;21.50;99.90;;;;;;7348052;32;20111;-67
2022/05/18 19:52:59;;;;;;;4.45;3.87;;;21.40;99.90;;;;;;7365975;32;20137;-69
2022/05/18 19:57:00;;;;;;;9.45;4.00;;;21.20;99.90;;;;;;7363263;32;20332;-68
2022/05/18 20:01:05;;;;;;;6.12;4.18;;;21.10;99.90;;;;;;7358712;32;20107;-67
2022/05/18 20:05:07;;;;;;;7.78;3.83;;;21.10;99.90;;;;;;7332203;32;20111;-67
2022/05/18 20:09:11;;;;;;;10.45;4.75;;;21.00;99.90;;;;;;7363111;32;20283;-69
2022/05/18 20:13:15;;;;;;;9.93;4.25;;;20.90;99.90;;;;;;7346499;32;20131;-68
2022/05/18 20:17:16;;;;;;;9.32;4.12;;;20.80;99.90;;;;;;7344758;32;20118;-67
2022/05/18 20:21:18;;;;;;;7.43;4.37;;;20.70;99.90;;;;;;7352938;32;20172;-67
2022/05/18 20:25:21;;;;;;;7.47;3.97;;;20.80;99.90;;;;;;7346987;32;20106;-65
2022/05/18 20:29:23;;;;;;;11.70;4.32;;;20.80;99.90;;;;;;7359101;32;20811;-66
2022/05/18 20:33:29;;;;;;;11.77;3.90;;;20.60;99.90;;;;;;7359764;32;20137;-66
2022/05/18 20:37:30;;;;;;;6.80;4.03;;;20.30;99.90;;;;;;7351430;32;20137;-66
2022/05/18 20:41:38;;;;;;;13.95;10.73;;;20.20;99.90;;;;;;7361052;32;20194;-66
2022/05/18 20:45:41;;;;;;;8.52;4.53;;;20.00;99.90;;;;;;7356704;32;20103;-66
2022/05/18 20:49:45;;;;;;;5.85;4.07;;;20.00;99.90;;;;;;7346031;32;20119;-66
2022/05/18 20:53:47;;;;;;;6.93;4.45;;;19.90;99.90;;;;;;7358784;32;20238;-66
2022/05/18 20:57:50;;;;;;;8.75;4.00;;;19.80;99.90;;;;;;7348375;32;20228;-68
2022/05/18 21:01:52;;;;;;;8.10;3.80;;;19.80;99.90;;;;;;7303153;32;20210;-65
2022/05/18 21:05:54;;;;;;;8.23;4.87;;;19.70;99.90;;;;;;7293948;32;20113;-67
2022/05/18 21:09:56;;;;;;;9.85;4.50;;;19.70;99.90;;;;;;7234137;32;20203;-67
2022/05/18 21:14:00;;;;;;;7.20;4.35;;;19.50;99.90;;;;;;7261782;32;20761;-67
2022/05/18 21:18:04;;;;;;;6.50;4.35;;;19.40;99.90;;;;;;7284971;32;20105;-65
2022/05/18 21:22:06;;;;;;;10.40;4.30;;;19.40;99.90;;;;;;7288649;32;20287;-67
2022/05/18 21:26:08;;;;;;;7.75;4.32;;;19.30;99.90;;;;;;7240054;32;20108;-66
2022/05/18 21:30:12;;;;;;;7.65;4.45;;;19.20;99.90;;;;;;7244099;32;20127;-68
2022/05/18 21:34:14;;;;;;;8.50;5.05;;;19.10;99.90;;;;;;7232749;32;20127;-67
2022/05/18 21:38:16;;;;;;;10.60;4.62;;;18.90;99.90;;;;;;7232537;32;20203;-67
2022/05/18 21:42:20;;;;;;;8.18;5.32;;;18.80;99.90;;;;;;7234384;32;20109;-67
2022/05/18 21:46:30;;;;;;;8.20;4.53;;;18.70;99.90;;;;;;7292406;32;20115;-67
2022/05/18 21:50:31;;;;;;;8.02;5.28;;;18.60;99.90;;;;;;7237068;32;20117;-67
2022/05/18 21:54:33;;;;;;;6.82;4.97;;;18.50;99.90;;;;;;7228145;32;20112;-68
2022/05/18 21:58:38;;;;;;;8.95;5.20;;;18.50;99.90;;;;;;7280749;32;20112;-67
2022/05/18 22:02:40;;;;;;;6.80;5.22;;;18.40;99.90;;;;;;7299562;32;20252;-68